createdAt,value
2018-08-03T00:01:51.251Z,102059.17
2018-08-03T00:04:20.519Z,102056.45
2018-08-03T00:06:49.823Z,102061.58
2018-08-03T00:09:19.144Z,102058.56
2018-08-03T00:11:48.415Z,102060.49
2018-08-03T00:14:17.748Z,102054.87
2018-08-03T00:16:47.569Z,102047.17
2018-08-03T00:19:16.838Z,102045.41
2018-08-03T00:21:46.114Z,102049.67
2018-08-03T00:24:15.421Z,102049.22
2018-08-03T00:26:44.661Z,102045.44
2018-08-03T00:29:13.930Z,102049.16
2018-08-03T00:31:43.226Z,102038.13
2018-08-03T00:34:12.519Z,102042.45
2018-08-03T00:36:41.804Z,102043.31
2018-08-03T00:39:12.114Z,102037.36
2018-08-03T00:41:41.438Z,102034.74
2018-08-03T00:44:10.687Z,102041.18
2018-08-03T00:46:39.978Z,102042.24
2018-08-03T00:49:09.399Z,102044.78
2018-08-03T00:51:38.653Z,102045.72
2018-08-03T00:54:07.954Z,102044.02
2018-08-03T00:56:37.242Z,102044.25
2018-08-03T00:59:06.518Z,102046.56
2018-08-03T01:01:35.805Z,102048.73
2018-08-03T01:04:05.115Z,102041.45
2018-08-03T01:06:34.444Z,102054.02
2018-08-03T01:09:04.245Z,102052.03
2018-08-03T01:11:33.482Z,102053.70
2018-08-03T01:14:02.748Z,102051.39
2018-08-03T01:16:35.346Z,102050.45
2018-08-03T01:19:04.682Z,102048.56
2018-08-03T01:21:34.047Z,102053.34
2018-08-03T01:24:03.910Z,102057.20
2018-08-03T01:26:33.217Z,102055.50
2018-08-03T01:29:02.639Z,102049.78
2018-08-03T01:31:31.986Z,102057.00
2018-08-03T01:34:01.426Z,102059.15
2018-08-03T01:36:30.761Z,102052.45
2018-08-03T01:39:00.103Z,102053.72
2018-08-03T01:41:29.397Z,102053.64
2018-08-03T01:43:58.705Z,102053.13
2018-08-03T01:46:28.226Z,102055.56
2018-08-03T01:48:57.483Z,102058.56
2018-08-03T01:51:26.725Z,102052.62
2018-08-03T01:53:56.007Z,102051.85
2018-08-03T01:56:25.273Z,102046.59
2018-08-03T01:58:54.589Z,102042.95
2018-08-03T02:01:23.950Z,102041.00
2018-08-03T02:03:53.184Z,102043.41
2018-08-03T02:06:22.498Z,102046.36
2018-08-03T02:08:52.307Z,102047.34
2018-08-03T02:11:21.602Z,102046.72
2018-08-03T02:13:51.031Z,102053.70
2018-08-03T02:16:20.345Z,102052.72
2018-08-03T02:18:49.651Z,102052.83
2018-08-03T02:21:18.942Z,102052.88
2018-08-03T02:23:48.246Z,102054.30
2018-08-03T02:26:17.529Z,102052.52
2018-08-03T02:28:46.810Z,102060.45
2018-08-03T02:31:16.665Z,102054.26
2018-08-03T02:33:45.940Z,102061.71
2018-08-03T02:36:15.194Z,102055.23
2018-08-03T02:38:44.507Z,102053.73
2018-08-03T02:41:13.834Z,102055.16
2018-08-03T02:43:43.141Z,102050.43
2018-08-03T02:46:12.460Z,102050.37
2018-08-03T02:48:41.722Z,102053.98
2018-08-03T02:51:10.971Z,102053.14
2018-08-03T02:53:40.397Z,102051.44
2018-08-03T02:56:09.756Z,102055.47
2018-08-03T02:58:39.015Z,102052.33
2018-08-03T03:01:08.832Z,102053.42
2018-08-03T03:03:38.107Z,102057.68
2018-08-03T03:06:07.549Z,102059.05
2018-08-03T03:08:36.865Z,102066.81
2018-08-03T03:11:06.181Z,102059.48
2018-08-03T03:13:35.561Z,102060.97
2018-08-03T03:16:05.065Z,102061.94
2018-08-03T03:18:34.315Z,102061.29
2018-08-03T03:21:03.591Z,102062.89
2018-08-03T03:23:32.882Z,102060.13
2018-08-03T03:26:02.162Z,102055.45
2018-08-03T03:28:31.457Z,102060.97
2018-08-03T03:31:00.739Z,102061.30
2018-08-03T03:33:30.045Z,102067.67
2018-08-03T03:35:59.319Z,102063.10
2018-08-03T03:38:28.658Z,102069.16
2018-08-03T03:40:57.941Z,102063.84
2018-08-03T03:43:27.208Z,102063.30
2018-08-03T03:45:56.508Z,102060.42
2018-08-03T03:48:25.808Z,102054.47
2018-08-03T03:50:55.112Z,102070.53
2018-08-03T03:53:24.450Z,102058.20
2018-08-03T03:55:53.894Z,102053.85
2018-08-03T03:58:23.132Z,102054.48
2018-08-03T04:00:52.935Z,102050.77
2018-08-03T04:03:22.188Z,102054.28
2018-08-03T04:05:51.494Z,102057.25
2018-08-03T04:08:20.803Z,102062.25
2018-08-03T04:10:50.117Z,102059.70
2018-08-03T04:13:19.374Z,102059.38
2018-08-03T04:15:48.721Z,102056.52
2018-08-03T04:18:20.501Z,102058.85
2018-08-03T04:20:50.790Z,102061.50
2018-08-03T04:23:20.349Z,102055.88
2018-08-03T04:25:49.741Z,102062.88
2018-08-03T04:28:19.033Z,102061.19
2018-08-03T04:30:48.311Z,102062.03
2018-08-03T04:33:17.557Z,102069.16
2018-08-03T04:35:46.850Z,102063.20
2018-08-03T04:38:16.170Z,102062.14
2018-08-03T04:40:45.405Z,102061.30
2018-08-03T04:43:14.867Z,102057.79
2018-08-03T04:45:44.158Z,102060.22
2018-08-03T04:48:13.425Z,102059.17
2018-08-03T04:50:42.668Z,102067.98
2018-08-03T04:53:11.985Z,102072.22
2018-08-03T04:55:41.258Z,102072.88
2018-08-03T04:58:10.528Z,102071.80
2018-08-03T05:00:39.808Z,102069.25
2018-08-03T05:03:09.086Z,102070.54
2018-08-03T05:05:38.448Z,102067.77
2018-08-03T05:08:07.711Z,102063.73
2018-08-03T05:10:37.024Z,102062.60
2018-08-03T05:13:06.389Z,102072.05
2018-08-03T05:15:35.698Z,102068.21
2018-08-03T05:18:04.948Z,102070.83
2018-08-03T05:20:34.209Z,102068.04
2018-08-03T05:23:03.517Z,102074.22
2018-08-03T05:25:32.808Z,102069.41
2018-08-03T05:28:02.338Z,102069.63
2018-08-03T05:30:31.599Z,102080.20
2018-08-03T05:33:00.911Z,102077.28
2018-08-03T05:35:30.337Z,102084.33
2018-08-03T05:37:59.577Z,102079.71
2018-08-03T05:40:28.839Z,102078.67
2018-08-03T05:42:58.094Z,102077.44
2018-08-03T05:45:27.448Z,102072.18
2018-08-03T05:47:56.683Z,102080.22
2018-08-03T05:50:26.285Z,102075.58
2018-08-03T05:52:55.555Z,102082.61
2018-08-03T05:55:25.016Z,102080.61
2018-08-03T05:57:54.338Z,102077.57
2018-08-03T06:00:24.014Z,102079.48
2018-08-03T06:02:53.324Z,102078.81
2018-08-03T06:05:22.616Z,102078.27
2018-08-03T06:07:51.893Z,102083.45
2018-08-03T06:10:21.251Z,102083.19
2018-08-03T06:12:50.852Z,102086.05
2018-08-03T06:15:20.104Z,102085.55
2018-08-03T06:17:49.394Z,102084.55
2018-08-03T06:20:18.780Z,102084.23
2018-08-03T06:22:48.095Z,102086.06
2018-08-03T06:25:17.479Z,102078.79
2018-08-03T06:27:46.844Z,102092.69
2018-08-03T06:30:16.292Z,102080.39
2018-08-03T06:32:45.570Z,102092.42
2018-08-03T06:35:15.393Z,102078.39
2018-08-03T06:37:44.698Z,102080.56
2018-08-03T06:40:14.072Z,102077.17
2018-08-03T06:42:43.508Z,102087.03
2018-08-03T06:45:12.809Z,102083.40
2018-08-03T06:47:42.044Z,102084.90
2018-08-03T06:50:11.382Z,102085.60
2018-08-03T06:52:40.675Z,102077.53
2018-08-03T06:55:10.013Z,102083.41
2018-08-03T06:57:39.824Z,102080.20
2018-08-03T07:00:09.190Z,102077.95
2018-08-03T07:02:38.494Z,102078.66
2018-08-03T07:05:07.846Z,102087.02
2018-08-03T07:07:37.271Z,102082.64
2018-08-03T07:10:06.870Z,102080.41
2018-08-03T07:12:36.234Z,102085.07
2018-08-03T07:15:06.551Z,102082.37
2018-08-03T07:17:36.594Z,102079.77
2018-08-03T07:20:06.969Z,102071.51
2018-08-03T07:22:36.202Z,102069.61
2018-08-03T07:25:05.738Z,102067.63
2018-08-03T07:27:35.075Z,102075.48
2018-08-03T07:30:05.340Z,102068.63
2018-08-03T07:32:34.646Z,102073.93
2018-08-03T07:35:04.396Z,102074.10
2018-08-03T07:37:33.808Z,102073.56
2018-08-03T07:40:03.221Z,102068.81
2018-08-03T07:42:32.858Z,102073.14
2018-08-03T07:45:02.285Z,102071.78
2018-08-03T07:47:32.616Z,102063.70
2018-08-03T07:50:02.051Z,102063.64
2018-08-03T07:52:31.430Z,102063.09
2018-08-03T07:55:00.410Z,102072.00
2018-08-03T07:57:30.010Z,102071.48
2018-08-03T07:59:59.290Z,102070.52
2018-08-03T08:02:28.601Z,102063.83
2018-08-03T08:04:58.155Z,102061.94
2018-08-03T08:07:27.449Z,102060.45
2018-08-03T08:09:56.754Z,102053.25
2018-08-03T08:12:26.123Z,102054.20
2018-08-03T08:14:55.430Z,102060.05
2018-08-03T08:17:24.921Z,102061.95
2018-08-03T08:19:54.336Z,102052.92
2018-08-03T08:22:23.627Z,102053.54
2018-08-03T08:24:52.955Z,102054.88
2018-08-03T08:27:22.603Z,102053.29
2018-08-03T08:29:51.855Z,102055.28
2018-08-03T08:32:21.165Z,102052.50
2018-08-03T08:34:50.468Z,102050.37
2018-08-03T08:37:19.761Z,102045.78
2018-08-03T08:39:49.027Z,102044.25
2018-08-03T08:42:18.327Z,102037.09
2018-08-03T08:44:47.569Z,102039.04
2018-08-03T08:47:16.896Z,102032.06
2018-08-03T08:49:46.500Z,102027.59
2018-08-03T08:52:15.805Z,102029.05
2018-08-03T08:54:45.160Z,102022.87
2018-08-03T08:57:14.433Z,102023.42
2018-08-03T08:59:43.774Z,102026.66
2018-08-03T09:02:13.009Z,102025.98
2018-08-03T09:04:42.336Z,102025.77
2018-08-03T09:07:11.675Z,102023.37
2018-08-03T09:09:40.932Z,102018.32
2018-08-03T09:12:10.442Z,102013.27
2018-08-03T09:14:39.751Z,102012.21
2018-08-03T09:17:08.940Z,102007.98
2018-08-03T09:19:38.240Z,102020.08
2018-08-03T09:22:07.621Z,102005.98
2018-08-03T09:24:36.873Z,102001.25
2018-08-03T09:27:06.254Z,102003.42
2018-08-03T09:29:35.545Z,102014.45
2018-08-03T09:32:05.215Z,102000.97
2018-08-03T09:34:34.893Z,101999.00
2018-08-03T09:37:04.222Z,101993.59
2018-08-03T09:39:33.509Z,101992.17
2018-08-03T09:42:02.821Z,101989.16
2018-08-03T09:44:32.114Z,101982.47
2018-08-03T09:47:01.451Z,101978.31
2018-08-03T09:49:30.966Z,101974.28
2018-08-03T09:52:00.229Z,101979.64
2018-08-03T09:54:29.513Z,101972.84
2018-08-03T09:56:59.187Z,101967.23
2018-08-03T09:59:28.455Z,101963.79
2018-08-03T10:01:57.739Z,101961.72
2018-08-03T10:04:27.070Z,101961.09
2018-08-03T10:06:56.388Z,101961.62
2018-08-03T10:09:25.701Z,101962.09
2018-08-03T10:11:55.001Z,101958.16
2018-08-03T10:14:24.310Z,101954.09
2018-08-03T10:16:53.636Z,101955.43
2018-08-03T10:19:23.141Z,101955.83
2018-08-03T10:21:52.559Z,101946.81
2018-08-03T10:24:21.825Z,101943.66
2018-08-03T10:26:51.126Z,101946.09
2018-08-03T10:29:20.680Z,101936.26
2018-08-03T10:31:49.957Z,101933.58
2018-08-03T10:34:19.517Z,101940.10
2018-08-03T10:36:48.785Z,101933.23
2018-08-03T10:39:18.054Z,101935.09
2018-08-03T10:41:47.451Z,101927.87
2018-08-03T10:44:16.491Z,101922.77
2018-08-03T10:46:45.623Z,101918.17
2018-08-03T10:49:14.948Z,101932.55
2018-08-03T10:51:44.239Z,101918.08
2018-08-03T10:54:13.559Z,101911.95
2018-08-03T10:56:42.910Z,101919.09
2018-08-03T10:59:12.252Z,101911.48
2018-08-03T11:01:41.596Z,101900.22
2018-08-03T11:04:10.925Z,101912.58
2018-08-03T11:06:40.223Z,101905.47
2018-08-03T11:09:10.492Z,101901.77
2018-08-03T11:11:39.855Z,101901.00
2018-08-03T11:14:09.163Z,101900.93
2018-08-03T11:16:38.438Z,101907.06
2018-08-03T11:19:07.810Z,101892.34
2018-08-03T11:21:37.074Z,101896.02
2018-08-03T11:24:06.460Z,101886.98
2018-08-03T11:26:36.205Z,101895.34
2018-08-03T11:29:05.453Z,101882.69
2018-08-03T11:31:34.777Z,101881.19
2018-08-03T11:34:04.119Z,101878.05
2018-08-03T11:36:33.395Z,101886.95
2018-08-03T11:39:02.416Z,101877.19
2018-08-03T11:41:31.750Z,101873.91
2018-08-03T11:44:01.050Z,101871.17
2018-08-03T11:46:30.345Z,101869.61
2018-08-03T11:48:59.995Z,101879.81
2018-08-03T11:51:29.319Z,101873.20
2018-08-03T11:53:58.689Z,101868.31
2018-08-03T11:56:27.961Z,101855.83
2018-08-03T11:58:57.253Z,101867.92
2018-08-03T12:01:26.530Z,101849.58
2018-08-03T12:03:55.955Z,101852.66
2018-08-03T12:06:25.222Z,101844.24
2018-08-03T12:08:54.525Z,101846.69
2018-08-03T12:11:24.017Z,101851.94
2018-08-03T12:13:53.264Z,101843.91
2018-08-03T12:16:22.586Z,101853.41
2018-08-03T12:18:52.045Z,101849.06
2018-08-03T12:21:21.306Z,101852.44
2018-08-03T12:23:50.586Z,101842.55
2018-08-03T12:26:19.886Z,101836.87
2018-08-03T12:28:49.175Z,101836.80
2018-08-03T12:31:18.535Z,101835.09
2018-08-03T12:33:48.424Z,101835.34
2018-08-03T12:36:17.684Z,101833.04
2018-08-03T12:38:46.959Z,101835.19
2018-08-03T12:41:16.286Z,101830.72
2018-08-03T12:43:45.630Z,101822.20
2018-08-03T12:46:14.902Z,101826.86
2018-08-03T12:48:44.247Z,101813.09
2018-08-03T12:51:13.293Z,101812.11
2018-08-03T12:53:42.561Z,101816.54
2018-08-03T12:56:12.346Z,101811.91
2018-08-03T12:58:41.378Z,101805.30
2018-08-03T13:01:10.752Z,101801.06
2018-08-03T13:03:40.000Z,101798.84
2018-08-03T13:06:09.271Z,101800.05
2018-08-03T13:08:38.609Z,101791.66
2018-08-03T13:11:07.935Z,101790.92
2018-08-03T13:13:37.208Z,101794.42
2018-08-03T13:16:06.566Z,101785.50
2018-08-03T13:18:35.981Z,101786.12
2018-08-03T13:21:42.474Z,101781.45
2018-08-03T13:24:11.807Z,101775.98
2018-08-03T13:26:41.137Z,101783.55
2018-08-03T13:29:10.199Z,101782.20
2018-08-03T13:31:39.531Z,101771.55
2018-08-03T13:34:08.853Z,101774.34
2018-08-03T13:36:38.125Z,101770.22
2018-08-03T13:39:09.710Z,101768.80
2018-08-03T13:41:38.980Z,101760.84
2018-08-03T13:44:08.296Z,101752.63
2018-08-03T13:46:37.638Z,101753.20
2018-08-03T13:49:06.951Z,101763.55
2018-08-03T13:51:36.230Z,101753.02
2018-08-03T13:54:05.543Z,101748.61
2018-08-03T13:56:35.112Z,101747.36
2018-08-03T13:59:04.199Z,101741.72
2018-08-03T14:02:41.943Z,101741.06
2018-08-03T14:05:13.089Z,101731.48
2018-08-03T14:07:42.422Z,101736.83
2018-08-03T14:10:11.785Z,101733.67
2018-08-03T14:12:41.078Z,101728.37
2018-08-03T14:15:10.374Z,101731.32
2018-08-03T14:17:39.443Z,101728.94
2018-08-03T14:20:08.780Z,101724.06
2018-08-03T14:22:38.116Z,101719.16
2018-08-03T14:25:07.753Z,101719.68
2018-08-03T14:27:37.112Z,101713.80
2018-08-03T14:30:07.986Z,101719.55
2018-08-03T14:32:37.295Z,101714.40
2018-08-03T14:35:06.747Z,101705.86
2018-08-03T14:37:36.013Z,101703.91
2018-08-03T14:40:05.580Z,101705.22
2018-08-03T14:42:34.851Z,101702.48
2018-08-03T14:45:04.206Z,101695.11
2018-08-03T14:47:34.740Z,101693.66
2018-08-03T14:50:04.513Z,101686.84
2018-08-03T14:52:33.804Z,101681.03
2018-08-03T14:55:03.193Z,101685.47
2018-08-03T14:57:32.458Z,101679.14
2018-08-03T15:00:01.776Z,101678.00
2018-08-03T15:02:31.111Z,101682.55
2018-08-03T15:05:00.410Z,101668.43
2018-08-03T15:07:29.824Z,101666.00
2018-08-03T15:09:59.543Z,101676.16
2018-08-03T15:12:28.864Z,101659.32
2018-08-03T15:14:58.158Z,101657.25
2018-08-03T15:17:27.594Z,101663.81
2018-08-03T15:19:56.904Z,101664.31
2018-08-03T15:22:26.710Z,101655.41
2018-08-03T15:24:55.845Z,101654.84
2018-08-03T15:27:25.091Z,101664.44
2018-08-03T15:29:54.401Z,101658.03
2018-08-03T15:32:24.025Z,101658.72
2018-08-03T15:34:53.345Z,101652.69
2018-08-03T15:37:22.637Z,101644.40
2018-08-03T15:39:51.952Z,101652.50
2018-08-03T15:42:21.257Z,101643.91
2018-08-03T15:44:50.578Z,101647.28
2018-08-03T15:47:19.882Z,101646.97
2018-08-03T15:49:49.176Z,101638.58
2018-08-03T15:52:22.116Z,101636.44
2018-08-03T15:54:52.170Z,101635.31
2018-08-03T15:57:21.497Z,101629.90
2018-08-03T15:59:50.828Z,101626.68
2018-08-03T16:02:20.092Z,101623.86
2018-08-03T16:04:49.337Z,101620.52
2018-08-03T16:07:18.422Z,101619.22
2018-08-03T16:09:47.783Z,101616.75
2018-08-03T16:12:17.704Z,101622.20
2018-08-03T16:14:47.401Z,101614.35
2018-08-03T16:17:16.708Z,101610.00
2018-08-03T16:19:45.964Z,101608.32
2018-08-03T16:22:15.078Z,101608.31
2018-08-03T16:24:44.332Z,101608.23
2018-08-03T16:27:13.622Z,101608.67
2018-08-03T16:29:42.904Z,101600.44
2018-08-03T16:32:12.193Z,101599.90
2018-08-03T16:34:41.607Z,101598.81
2018-08-03T16:37:10.939Z,101597.06
2018-08-03T16:39:40.207Z,101597.33
2018-08-03T16:42:09.537Z,101599.38
2018-08-03T16:44:39.193Z,101591.48
2018-08-03T16:47:08.460Z,101589.84
2018-08-03T16:49:37.778Z,101593.00
2018-08-03T16:52:06.943Z,101595.64
2018-08-03T16:54:36.175Z,101587.88
2018-08-03T16:57:05.515Z,101587.95
2018-08-03T16:59:35.187Z,101586.84
2018-08-03T17:02:04.547Z,101588.28
2018-08-03T17:04:33.874Z,101589.69
2018-08-03T17:07:03.149Z,101589.73
2018-08-03T17:09:32.438Z,101581.86
2018-08-03T17:12:01.824Z,101583.64
2018-08-03T17:14:31.181Z,101579.52
2018-08-03T17:17:00.485Z,101578.64
2018-08-03T17:19:29.926Z,101583.53
2018-08-03T17:21:59.350Z,101577.05
2018-08-03T17:24:28.643Z,101579.55
2018-08-03T17:26:57.926Z,101578.27
2018-08-03T17:29:27.219Z,101578.15
2018-08-03T17:31:56.366Z,101576.97
2018-08-03T17:34:25.341Z,101576.35
2018-08-03T17:36:54.669Z,101575.00
2018-08-03T17:39:23.894Z,101577.44
2018-08-03T17:41:53.133Z,101580.42
2018-08-03T17:44:22.759Z,101573.87
2018-08-03T17:46:52.039Z,101580.08
2018-08-03T17:49:21.288Z,101584.23
2018-08-03T17:51:50.609Z,101586.73
2018-08-03T17:54:19.719Z,101581.84
2018-08-03T17:56:49.012Z,101579.33
2018-08-03T17:59:18.543Z,101586.17
2018-08-03T18:01:47.874Z,101592.16
2018-08-03T18:04:17.275Z,101594.71
2018-08-03T18:06:46.992Z,101593.23
2018-08-03T18:09:16.459Z,101595.96
2018-08-03T18:11:45.717Z,101593.63
2018-08-03T18:14:15.108Z,101598.05
2018-08-03T18:16:44.578Z,101604.79
2018-08-03T18:19:13.899Z,101602.73
2018-08-03T18:21:43.305Z,101609.03
2018-08-03T18:24:12.599Z,101606.16
2018-08-03T18:26:41.876Z,101600.56
2018-08-03T18:29:11.475Z,101604.56
2018-08-03T18:31:40.675Z,101606.73
2018-08-03T18:34:10.074Z,101610.58
2018-08-03T18:36:39.470Z,101609.69
2018-08-03T18:39:10.402Z,101616.36
2018-08-03T18:41:39.681Z,101616.83
2018-08-03T18:44:08.974Z,101618.45
2018-08-03T18:46:38.269Z,101617.64
2018-08-03T18:49:07.599Z,101618.47
2018-08-03T18:51:38.458Z,101620.72
2018-08-03T18:54:07.815Z,101627.06
2018-08-03T18:56:37.191Z,101632.44
2018-08-03T18:59:07.177Z,101634.76
2018-08-03T19:01:36.469Z,101638.68
2018-08-03T19:04:05.839Z,101634.78
2018-08-03T19:06:35.167Z,101646.17
2018-08-03T19:09:06.019Z,101644.95
2018-08-03T19:11:35.311Z,101648.91
2018-08-03T19:14:04.734Z,101651.17
2018-08-03T19:16:34.052Z,101654.92
2018-08-03T19:19:03.362Z,101655.45
2018-08-03T19:21:32.734Z,101662.80
2018-08-03T19:24:02.040Z,101669.87
2018-08-03T19:26:31.300Z,101669.33
2018-08-03T19:29:00.707Z,101664.92
2018-08-03T19:31:29.983Z,101673.89
2018-08-03T19:33:59.304Z,101672.48
2018-08-03T19:36:28.913Z,101669.20
2018-08-03T19:38:58.235Z,101667.52
2018-08-03T19:41:27.593Z,101675.66
2018-08-03T19:43:57.049Z,101674.28
2018-08-03T19:46:26.350Z,101669.24
2018-08-03T19:48:55.735Z,101675.13
2018-08-03T19:51:25.026Z,101667.02
2018-08-03T19:53:54.359Z,101676.55
2018-08-03T19:56:23.607Z,101675.45
2018-08-03T19:58:53.180Z,101675.14
2018-08-03T20:01:22.478Z,101674.87
2018-08-03T20:03:51.815Z,101678.80
2018-08-03T20:06:21.132Z,101672.38
2018-08-03T20:08:50.401Z,101676.02
2018-08-03T20:11:19.709Z,101676.86
2018-08-03T20:13:49.176Z,101682.73
2018-08-03T20:16:18.630Z,101683.58
2018-08-03T20:18:47.911Z,101685.55
2018-08-03T20:21:17.532Z,101686.12
2018-08-03T20:23:46.884Z,101683.59
2018-08-03T20:26:16.159Z,101690.61
2018-08-03T20:28:45.525Z,101689.45
2018-08-03T20:31:14.936Z,101687.77
2018-08-03T20:33:44.571Z,101690.84
2018-08-03T20:36:14.054Z,101689.72
2018-08-03T20:38:43.362Z,101688.30
2018-08-03T20:41:12.676Z,101687.77
2018-08-03T20:43:42.526Z,101689.98
2018-08-03T20:46:11.843Z,101689.14
2018-08-03T20:48:41.157Z,101687.17
2018-08-03T20:51:10.464Z,101683.25
2018-08-03T20:53:39.784Z,101681.55
2018-08-03T20:56:09.194Z,101685.73
2018-08-03T20:58:38.633Z,101678.74
2018-08-03T21:01:07.735Z,101678.13
2018-08-03T21:03:37.109Z,101683.68
2018-08-03T21:06:06.924Z,101675.62
2018-08-03T21:08:36.161Z,101681.69
2018-08-03T21:11:05.479Z,101683.66
2018-08-03T21:13:34.815Z,101688.67
2018-08-03T21:16:04.118Z,101689.78
2018-08-03T21:18:33.424Z,101688.08
2018-08-03T21:21:02.741Z,101680.52
2018-08-03T21:23:32.055Z,101685.52
2018-08-03T21:26:01.103Z,101680.78
2018-08-03T21:28:30.660Z,101681.59
2018-08-03T21:30:59.958Z,101680.11
2018-08-03T21:33:29.254Z,101677.35
2018-08-03T21:35:58.591Z,101678.36
2018-08-03T21:38:27.882Z,101678.93
2018-08-03T21:40:57.198Z,101681.90
2018-08-03T21:43:26.483Z,101678.85
2018-08-03T21:45:55.769Z,101679.42
2018-08-03T21:48:24.821Z,101672.11
2018-08-03T21:50:55.860Z,101670.09
2018-08-03T21:53:26.350Z,101668.45
2018-08-03T21:55:55.665Z,101669.41
2018-08-03T21:58:24.992Z,101661.91
2018-08-03T22:00:54.257Z,101660.64
2018-08-03T22:03:23.624Z,101671.75
2018-08-03T22:05:52.943Z,101665.44
2018-08-03T22:08:22.226Z,101661.36
2018-08-03T22:10:51.935Z,101670.23
2018-08-03T22:13:22.312Z,101665.99
2018-08-03T22:15:51.628Z,101661.46
2018-08-03T22:18:20.903Z,101661.70
2018-08-03T22:20:50.203Z,101658.59
2018-08-03T22:23:21.502Z,101657.36
2018-08-03T22:25:50.855Z,101653.91
2018-08-03T22:28:20.407Z,101653.91
2018-08-03T22:30:49.698Z,101658.46
2018-08-03T22:33:19.958Z,101654.98
2018-08-03T22:35:49.286Z,101658.70
2018-08-03T22:38:18.677Z,101665.17
2018-08-03T22:40:47.977Z,101656.54
2018-08-03T22:43:17.285Z,101651.75
2018-08-03T22:45:46.589Z,101646.91
2018-08-03T22:48:16.021Z,101639.21
2018-08-03T22:50:45.294Z,101646.97
2018-08-03T22:53:14.612Z,101641.55
2018-08-03T22:55:44.060Z,101641.13
2018-08-03T22:58:13.359Z,101637.71
2018-08-03T23:00:42.658Z,101636.58
2018-08-03T23:03:11.942Z,101633.80
2018-08-03T23:05:41.207Z,101632.25
2018-08-03T23:08:10.752Z,101631.74
2018-08-03T23:10:40.099Z,101631.92
2018-08-03T23:13:09.628Z,101630.20
2018-08-03T23:15:38.914Z,101620.86
2018-08-03T23:18:08.521Z,101630.94
2018-08-03T23:20:37.825Z,101620.39
2018-08-03T23:23:07.349Z,101620.97
2018-08-03T23:25:36.647Z,101621.02
2018-08-03T23:28:05.932Z,101621.92
2018-08-03T23:30:35.226Z,101631.81
2018-08-03T23:33:04.507Z,101625.08
2018-08-03T23:35:34.327Z,101629.25
2018-08-03T23:38:03.651Z,101633.13
2018-08-03T23:40:33.326Z,101639.45
2018-08-03T23:43:03.710Z,101643.07
2018-08-03T23:45:33.119Z,101647.67
2018-08-03T23:48:02.615Z,101646.19
2018-08-03T23:50:33.293Z,101636.38
2018-08-03T23:53:02.585Z,101636.46
2018-08-03T23:55:31.879Z,101634.77
2018-08-03T23:58:01.200Z,101631.58
